createdAt,value
2023-05-14T00:30:46.195Z,42.63
2023-05-14T00:33:12.503Z,42.79
2023-05-14T00:35:38.888Z,43.69
2023-05-14T00:38:05.217Z,42.74
2023-05-14T00:40:31.613Z,43.33
2023-05-14T00:42:57.923Z,42.90
2023-05-14T00:45:24.297Z,43.62
2023-05-14T00:47:51.099Z,44.19
2023-05-14T00:50:17.849Z,44.18
2023-05-14T00:52:44.659Z,43.88
2023-05-14T00:55:16.237Z,44.01
2023-05-14T00:57:43.332Z,44.46
2023-05-14T01:00:10.123Z,43.78
2023-05-14T01:02:36.628Z,43.87
2023-05-14T01:05:03.611Z,43.82
2023-05-14T01:07:46.198Z,44.96
2023-05-14T01:10:25.145Z,44.08
2023-05-14T01:13:15.777Z,43.56
2023-05-14T01:15:44.090Z,43.91
2023-05-14T01:18:13.797Z,44.22
2023-05-14T01:20:40.161Z,44.43
2023-05-14T01:23:06.491Z,43.46
2023-05-14T01:25:33.646Z,43.38
2023-05-14T01:28:09.470Z,44.77
2023-05-14T01:30:48.624Z,44.52
2023-05-14T01:33:18.170Z,44.25
2023-05-14T01:35:45.561Z,42.71
2023-05-14T01:38:14.870Z,42.20
2023-05-14T01:40:41.980Z,42.22
2023-05-14T01:43:08.604Z,42.37
2023-05-14T01:45:36.138Z,42.56
2023-05-14T01:48:02.670Z,42.86
2023-05-14T01:50:29.182Z,42.78
2023-05-14T01:52:56.395Z,43.16
2023-05-14T01:55:24.399Z,42.89
2023-05-14T01:57:53.383Z,42.97
2023-05-14T02:00:20.839Z,43.33
2023-05-14T02:02:47.316Z,43.24
2023-05-14T02:05:13.843Z,43.72
2023-05-14T02:07:40.435Z,43.67
2023-05-14T02:10:07.634Z,43.71
2023-05-14T02:12:33.965Z,43.68
2023-05-14T02:15:00.302Z,44.21
2023-05-14T02:17:26.735Z,43.84
2023-05-14T02:19:53.084Z,43.90
2023-05-14T02:22:19.392Z,43.93
2023-05-14T02:24:45.718Z,44.20
2023-05-14T02:27:13.151Z,43.89
2023-05-14T02:29:39.454Z,43.99
2023-05-14T02:32:06.010Z,43.95
2023-05-14T02:34:34.297Z,43.91
2023-05-14T02:37:00.995Z,43.93
2023-05-14T02:39:27.308Z,43.84
2023-05-14T02:41:53.609Z,44.13
2023-05-14T02:44:19.912Z,44.04
2023-05-14T02:46:46.561Z,44.38
2023-05-14T02:49:12.862Z,44.29
2023-05-14T02:51:39.812Z,44.60
2023-05-14T02:54:06.253Z,45.24
2023-05-14T02:56:32.575Z,45.40
2023-05-14T02:58:58.922Z,45.75
2023-05-14T03:01:25.687Z,46.09
2023-05-14T03:03:52.525Z,46.02
2023-05-14T03:06:18.870Z,46.15
2023-05-14T03:08:45.630Z,45.99
2023-05-14T03:11:11.964Z,46.33
2023-05-14T03:13:38.265Z,46.35
2023-05-14T03:16:04.809Z,45.97
2023-05-14T03:18:33.217Z,46.20
2023-05-14T03:20:59.539Z,46.32
2023-05-14T03:23:25.975Z,46.23
2023-05-14T03:25:52.525Z,46.10
2023-05-14T03:28:18.895Z,46.71
2023-05-14T03:30:45.309Z,46.60
2023-05-14T03:33:12.236Z,46.12
2023-05-14T03:35:38.521Z,46.54
2023-05-14T03:38:04.873Z,46.51
2023-05-14T03:40:31.223Z,46.56
2023-05-14T03:42:57.557Z,46.29
2023-05-14T03:45:24.295Z,46.24
2023-05-14T03:47:50.709Z,46.30
2023-05-14T03:50:17.066Z,46.31
2023-05-14T03:52:44.122Z,45.90
2023-05-14T03:55:10.584Z,46.03
2023-05-14T03:57:37.013Z,45.74
2023-05-14T04:00:07.359Z,45.37
2023-05-14T04:02:33.730Z,45.54
2023-05-14T04:05:00.242Z,45.62
2023-05-14T04:07:26.565Z,45.47
2023-05-14T04:09:52.876Z,45.32
2023-05-14T04:12:19.214Z,45.21
2023-05-14T04:14:45.570Z,45.15
2023-05-14T04:17:11.918Z,44.88
2023-05-14T04:19:39.208Z,45.06
2023-05-14T04:22:05.610Z,44.97
2023-05-14T04:24:31.954Z,45.40
2023-05-14T04:26:58.285Z,45.41
2023-05-14T04:29:24.625Z,45.58
2023-05-14T04:31:51.024Z,46.07
2023-05-14T04:34:17.459Z,46.30
2023-05-14T04:36:43.841Z,46.01
2023-05-14T04:39:12.234Z,46.07
2023-05-14T04:41:38.871Z,45.84
2023-05-14T04:44:05.398Z,45.88
2023-05-14T04:46:31.792Z,45.76
2023-05-14T04:48:58.218Z,46.11
2023-05-14T04:51:24.586Z,45.89
2023-05-14T04:53:50.902Z,46.02
2023-05-14T04:56:17.537Z,46.40
2023-05-14T04:58:43.855Z,46.24
2023-05-14T05:01:10.468Z,46.23
2023-05-14T05:03:36.936Z,46.56
2023-05-14T05:06:03.476Z,46.72
2023-05-14T05:08:30.697Z,46.66
2023-05-14T05:10:57.038Z,46.76
2023-05-14T05:13:23.372Z,46.19
2023-05-14T05:15:49.716Z,46.65
2023-05-14T05:18:16.058Z,46.38
2023-05-14T05:20:42.476Z,46.97
2023-05-14T05:23:08.776Z,47.12
2023-05-14T05:25:35.154Z,47.04
2023-05-14T05:28:01.589Z,47.43
2023-05-14T05:30:28.046Z,47.21
2023-05-14T05:32:54.375Z,47.51
2023-05-14T05:35:20.759Z,47.95
2023-05-14T05:37:47.150Z,48.25
2023-05-14T05:40:14.331Z,48.69
2023-05-14T05:42:41.275Z,48.80
2023-05-14T05:45:07.984Z,48.66
2023-05-14T05:47:34.440Z,48.84
2023-05-14T05:50:02.874Z,49.18
2023-05-14T05:52:29.498Z,48.88
2023-05-14T05:54:55.869Z,48.58
2023-05-14T05:57:25.112Z,48.90
2023-05-14T05:59:53.068Z,48.86
2023-05-14T06:02:19.740Z,48.92
2023-05-14T06:04:46.049Z,48.70
2023-05-14T06:07:12.865Z,48.61
2023-05-14T06:09:39.171Z,48.64
2023-05-14T06:12:06.026Z,48.65
2023-05-14T06:14:32.311Z,48.97
2023-05-14T06:16:58.814Z,48.83
2023-05-14T06:19:25.176Z,48.74
2023-05-14T06:21:51.469Z,48.58
2023-05-14T06:24:19.894Z,48.79
2023-05-14T06:26:46.226Z,48.87
2023-05-14T06:29:12.578Z,48.49
2023-05-14T06:31:39.125Z,48.37
2023-05-14T06:34:05.667Z,48.28
2023-05-14T06:36:34.551Z,48.04
2023-05-14T06:39:01.013Z,48.17
2023-05-14T06:41:27.574Z,48.34
2023-05-14T06:43:54.183Z,48.32
2023-05-14T06:46:21.218Z,48.32
2023-05-14T06:48:47.803Z,48.09
2023-05-14T06:51:14.419Z,47.93
2023-05-14T06:53:41.250Z,47.76
2023-05-14T06:56:07.988Z,47.79
2023-05-14T06:58:34.544Z,47.85
2023-05-14T07:01:01.134Z,47.94
2023-05-14T07:03:29.149Z,47.69
2023-05-14T07:05:55.764Z,47.33
2023-05-14T07:08:22.434Z,47.29
2023-05-14T07:10:49.153Z,47.45
2023-05-14T07:13:15.703Z,47.28
2023-05-14T07:15:42.284Z,46.88
2023-05-14T07:18:08.882Z,47.19
2023-05-14T07:20:35.569Z,46.75
2023-05-14T07:23:05.133Z,46.62
2023-05-14T07:25:32.705Z,46.17
2023-05-14T07:27:59.397Z,46.63
2023-05-14T07:30:26.296Z,46.48
2023-05-14T07:32:53.078Z,46.27
2023-05-14T07:35:19.774Z,46.57
2023-05-14T07:37:46.402Z,45.99
2023-05-14T07:40:19.108Z,45.95
2023-05-14T07:42:46.046Z,46.28
2023-05-14T07:45:12.614Z,46.23
2023-05-14T07:47:39.493Z,45.87
2023-05-14T07:50:06.621Z,45.75
2023-05-14T07:52:33.194Z,45.66
2023-05-14T07:55:01.311Z,45.53
2023-05-14T07:57:27.914Z,45.76
2023-05-14T07:59:54.449Z,45.80
2023-05-14T08:02:21.101Z,46.15
2023-05-14T08:04:47.893Z,45.73
2023-05-14T08:07:14.406Z,45.48
2023-05-14T08:09:40.982Z,45.49
2023-05-14T08:12:08.450Z,45.19
2023-05-14T08:14:35.160Z,45.30
2023-05-14T08:17:01.836Z,45.91
2023-05-14T08:19:28.531Z,46.46
2023-05-14T08:21:55.009Z,46.94
2023-05-14T08:24:21.839Z,46.81
2023-05-14T08:26:48.411Z,46.89
2023-05-14T08:29:16.609Z,46.91
2023-05-14T08:31:43.619Z,46.10
2023-05-14T08:34:10.344Z,45.88
2023-05-14T08:36:37.951Z,46.55
2023-05-14T08:39:04.565Z,46.27
2023-05-14T08:41:32.042Z,45.62
2023-05-14T08:44:27.958Z,44.58
2023-05-14T08:46:54.905Z,44.53
2023-05-14T08:49:41.015Z,44.79
2023-05-14T08:52:09.343Z,44.71
2023-05-14T08:54:36.185Z,44.97
2023-05-14T08:57:08.491Z,45.36
2023-05-14T08:59:35.269Z,44.82
2023-05-14T09:02:03.080Z,44.45
2023-05-14T09:04:31.480Z,44.22
2023-05-14T09:07:01.417Z,44.53
2023-05-14T09:09:28.310Z,44.31
2023-05-14T09:11:54.945Z,44.18
2023-05-14T09:14:23.271Z,44.37
2023-05-14T09:16:51.468Z,44.17
2023-05-14T09:19:21.864Z,43.78
2023-05-14T09:21:49.552Z,43.19
2023-05-14T09:24:21.891Z,42.75
2023-05-14T09:26:53.646Z,42.79
2023-05-14T09:29:20.868Z,42.46
2023-05-14T09:31:50.422Z,43.49
2023-05-14T09:34:38.113Z,42.62
2023-05-14T09:37:06.962Z,43.17
2023-05-14T09:39:36.391Z,41.56
2023-05-14T09:42:03.513Z,42.24
2023-05-14T09:44:30.318Z,41.97
2023-05-14T09:46:56.974Z,42.40
2023-05-14T09:49:23.533Z,42.19
2023-05-14T09:51:50.482Z,42.07
2023-05-14T09:54:17.541Z,41.46
2023-05-14T09:56:44.934Z,41.69
2023-05-14T09:59:11.670Z,41.02
2023-05-14T10:01:39.513Z,40.89
2023-05-14T10:04:08.275Z,40.95
2023-05-14T10:06:37.961Z,41.79
2023-05-14T10:09:08.543Z,41.71
2023-05-14T10:11:38.426Z,41.52
2023-05-14T10:14:12.417Z,40.46
2023-05-14T10:16:46.905Z,39.92
2023-05-14T10:19:16.663Z,39.87
2023-05-14T10:21:47.813Z,39.93
2023-05-14T10:24:14.902Z,40.79
2023-05-14T10:26:42.107Z,39.76
2023-05-14T10:29:12.633Z,39.06
2023-05-14T10:31:55.924Z,39.70
2023-05-14T10:34:42.514Z,39.85
2023-05-14T10:37:14.877Z,39.64
2023-05-14T10:39:48.003Z,39.13
2023-05-14T10:42:19.823Z,39.78
2023-05-14T10:44:51.805Z,41.02
2023-05-14T10:47:18.940Z,40.66
2023-05-14T10:49:49.129Z,40.60
2023-05-14T10:52:20.210Z,40.55
2023-05-14T10:55:00.056Z,39.07
2023-05-14T10:57:30.682Z,39.42
2023-05-14T10:59:59.465Z,38.71
2023-05-14T11:02:34.764Z,37.35
2023-05-14T11:05:04.417Z,36.53
2023-05-14T11:07:40.085Z,35.72
2023-05-14T11:10:12.263Z,34.27
2023-05-14T11:12:41.031Z,35.98
2023-05-14T11:15:09.732Z,35.00
2023-05-14T11:17:37.809Z,33.88
2023-05-14T11:20:08.111Z,33.23
2023-05-14T11:22:35.625Z,32.28
2023-05-14T11:25:02.296Z,32.92
2023-05-14T11:27:29.671Z,31.62
2023-05-14T11:29:56.521Z,31.95
2023-05-14T11:32:23.163Z,31.36
2023-05-14T11:34:49.857Z,30.28
2023-05-14T11:37:17.062Z,32.12
2023-05-14T11:39:49.001Z,30.25
2023-05-14T11:42:17.457Z,30.25
2023-05-14T11:44:44.593Z,30.69
2023-05-14T11:47:11.334Z,30.31
2023-05-14T11:49:38.177Z,30.17
2023-05-14T11:52:07.451Z,30.28
2023-05-14T11:54:34.909Z,29.03
2023-05-14T11:57:11.040Z,28.83
2023-05-14T11:59:38.437Z,29.57
2023-05-14T12:02:06.189Z,29.20
2023-05-14T12:04:32.891Z,28.90
2023-05-14T12:07:00.752Z,28.84
2023-05-14T12:09:27.397Z,29.07
2023-05-14T12:11:54.077Z,28.29
2023-05-14T12:14:22.859Z,29.86
2023-05-14T12:16:50.951Z,28.39
2023-05-14T12:19:19.842Z,28.35
2023-05-14T12:21:48.442Z,28.07
2023-05-14T12:24:17.891Z,28.55
2023-05-14T12:26:45.707Z,28.63
2023-05-14T12:29:14.119Z,29.74
2023-05-14T12:34:19.277Z,27.94
2023-05-14T12:36:45.826Z,27.59
2023-05-14T12:39:12.460Z,27.76
2023-05-14T12:41:39.027Z,28.56
2023-05-14T12:44:05.886Z,28.72
2023-05-14T12:46:34.372Z,27.58
2023-05-14T12:49:01.121Z,27.65
2023-05-14T12:51:29.838Z,27.14
2023-05-14T12:53:56.299Z,27.05
2023-05-14T12:56:27.740Z,28.13
2023-05-14T12:58:56.426Z,28.15
2023-05-14T13:01:23.779Z,28.21
2023-05-14T13:03:50.884Z,29.50
2023-05-14T13:06:17.473Z,29.86
2023-05-14T13:08:43.991Z,30.19
2023-05-14T13:11:10.619Z,30.39
2023-05-14T13:13:37.081Z,31.21
2023-05-14T13:16:04.136Z,30.19
2023-05-14T13:18:30.702Z,29.31
2023-05-14T13:20:57.277Z,28.54
2023-05-14T13:23:24.347Z,28.13
2023-05-14T13:25:51.060Z,27.85
2023-05-14T13:28:17.635Z,26.87
2023-05-14T13:31:03.772Z,26.21
2023-05-14T13:33:30.646Z,25.83
2023-05-14T13:35:57.218Z,24.90
2023-05-14T13:38:23.718Z,25.72
2023-05-14T13:40:50.322Z,24.67
2023-05-14T13:43:17.008Z,25.18
2023-05-14T13:45:43.544Z,25.05
2023-05-14T13:48:10.142Z,24.44
2023-05-14T13:50:36.665Z,23.99
2023-05-14T13:53:03.136Z,23.71
2023-05-14T13:55:29.649Z,23.20
2023-05-14T13:57:56.291Z,23.28
2023-05-14T14:00:22.940Z,23.40
2023-05-14T14:02:49.601Z,22.59
2023-05-14T14:05:16.193Z,23.63
2023-05-14T14:07:42.832Z,22.13
2023-05-14T14:10:09.922Z,22.51
2023-05-14T14:12:36.825Z,21.86
2023-05-14T14:15:04.106Z,21.24
2023-05-14T14:17:30.633Z,21.69
2023-05-14T14:19:57.163Z,21.27
2023-05-14T14:22:27.165Z,21.15
2023-05-14T14:24:55.591Z,21.27
2023-05-14T14:27:22.445Z,21.22
2023-05-14T14:29:49.040Z,21.37
2023-05-14T14:32:15.800Z,21.30
2023-05-14T14:34:42.370Z,21.29
2023-05-14T14:37:08.971Z,20.96
2023-05-14T14:39:35.643Z,21.16
2023-05-14T14:42:02.302Z,21.33
2023-05-14T14:44:28.859Z,20.63
2023-05-14T14:46:55.528Z,20.95
2023-05-14T14:49:23.396Z,21.23
2023-05-14T14:51:49.878Z,21.07
2023-05-14T14:54:16.419Z,21.11
2023-05-14T14:56:43.419Z,21.63
2023-05-14T14:59:09.986Z,21.84
2023-05-14T15:01:36.630Z,22.66
2023-05-14T15:04:03.304Z,23.16
2023-05-14T15:06:29.828Z,23.93
2023-05-14T15:08:56.316Z,23.99
2023-05-14T15:11:22.944Z,23.52
2023-05-14T15:13:49.441Z,23.95
2023-05-14T15:16:16.059Z,23.51
2023-05-14T15:18:42.627Z,23.33
2023-05-14T15:21:09.234Z,23.45
2023-05-14T15:23:35.865Z,22.59
2023-05-14T15:26:02.441Z,23.79
2023-05-14T15:28:29.011Z,23.24
2023-05-14T15:30:55.644Z,23.64
2023-05-14T15:33:22.190Z,23.66
2023-05-14T15:35:48.661Z,23.29
2023-05-14T15:38:17.838Z,23.25
2023-05-14T15:40:44.351Z,23.27
2023-05-14T15:43:11.124Z,23.17
2023-05-14T15:45:37.563Z,23.82
2023-05-14T15:48:04.304Z,23.94
2023-05-14T15:50:30.904Z,24.20
2023-05-14T15:52:57.487Z,24.03
2023-05-14T15:55:24.033Z,23.95
2023-05-14T15:57:50.724Z,24.41
2023-05-14T16:00:17.528Z,24.14
2023-05-14T16:02:44.105Z,24.69
2023-05-14T16:05:10.773Z,24.35
2023-05-14T16:07:37.494Z,24.70
2023-05-14T16:10:04.825Z,24.33
2023-05-14T16:12:31.386Z,25.33
2023-05-14T16:14:58.121Z,25.89
2023-05-14T16:17:24.693Z,26.38
2023-05-14T16:19:52.832Z,26.08
2023-05-14T16:22:20.682Z,26.46
2023-05-14T16:24:47.237Z,26.17
2023-05-14T16:27:13.826Z,26.77
2023-05-14T16:29:40.436Z,26.43
2023-05-14T16:32:07.337Z,26.19
2023-05-14T16:34:33.881Z,26.53
2023-05-14T16:37:00.462Z,27.27
2023-05-14T16:39:27.117Z,27.35
2023-05-14T16:41:53.656Z,27.58
2023-05-14T16:44:20.152Z,27.64
2023-05-14T16:46:46.731Z,27.47
2023-05-14T16:49:14.086Z,27.79
2023-05-14T16:51:43.137Z,28.02
2023-05-14T16:54:09.975Z,28.06
2023-05-14T16:56:36.788Z,28.31
2023-05-14T16:59:03.375Z,28.88
2023-05-14T17:01:30.613Z,28.56
2023-05-14T17:03:57.310Z,29.15
2023-05-14T17:06:23.903Z,29.19
2023-05-14T17:08:50.711Z,29.01
2023-05-14T17:11:17.236Z,28.86
2023-05-14T17:13:43.788Z,29.49
2023-05-14T17:16:10.724Z,29.51
2023-05-14T17:18:37.955Z,29.85
2023-05-14T17:21:05.871Z,29.84
2023-05-14T17:23:32.474Z,30.09
2023-05-14T17:25:59.203Z,30.38
2023-05-14T17:28:27.029Z,30.52
2023-05-14T17:30:53.625Z,30.43
2023-05-14T17:33:20.250Z,30.98
2023-05-14T17:35:46.875Z,31.48
2023-05-14T17:38:13.584Z,31.11
2023-05-14T17:40:40.915Z,31.35
2023-05-14T17:43:08.574Z,31.77
2023-05-14T17:45:46.186Z,31.99
2023-05-14T17:48:19.511Z,32.22
2023-05-14T17:50:46.227Z,31.85
2023-05-14T17:53:12.867Z,32.14
2023-05-14T17:55:43.476Z,32.34
2023-05-14T17:58:15.538Z,33.32
2023-05-14T18:00:42.348Z,32.79
2023-05-14T18:03:09.084Z,33.11
2023-05-14T18:05:36.285Z,32.63
2023-05-14T18:08:03.325Z,33.28
2023-05-14T18:10:29.966Z,32.81
2023-05-14T18:12:56.843Z,33.58
2023-05-14T18:15:25.514Z,33.93
2023-05-14T18:17:52.748Z,33.90
2023-05-14T18:20:19.663Z,34.29
2023-05-14T18:22:46.184Z,34.18
2023-05-14T18:25:13.621Z,33.95
2023-05-14T18:27:44.508Z,33.20
2023-05-14T18:30:15.670Z,33.25
2023-05-14T18:32:44.547Z,33.06
2023-05-14T18:35:12.340Z,33.12
2023-05-14T18:37:39.035Z,33.45
2023-05-14T18:40:07.004Z,33.41
2023-05-14T18:42:34.036Z,34.05
2023-05-14T18:45:00.624Z,34.24
2023-05-14T18:47:27.099Z,34.63
2023-05-14T18:49:55.653Z,34.97
2023-05-14T18:52:22.803Z,35.00
2023-05-14T18:54:50.749Z,35.47
2023-05-14T18:57:17.128Z,35.38
2023-05-14T18:59:43.576Z,35.84
2023-05-14T19:02:10.113Z,36.42
2023-05-14T19:04:50.555Z,36.22
2023-05-14T19:07:18.777Z,36.13
2023-05-14T19:09:45.240Z,36.34
2023-05-14T19:12:11.626Z,36.73
2023-05-14T19:14:38.071Z,36.71
2023-05-14T19:17:05.366Z,37.18
2023-05-14T19:19:31.816Z,37.10
2023-05-14T19:21:58.193Z,37.11
2023-05-14T19:24:24.773Z,37.33
2023-05-14T19:26:51.229Z,38.08
2023-05-14T19:29:17.627Z,38.09
2023-05-14T19:31:44.053Z,37.35
2023-05-14T19:34:10.767Z,38.00
2023-05-14T19:36:37.174Z,38.26
2023-05-14T19:39:03.780Z,38.00
2023-05-14T19:41:30.210Z,37.59
2023-05-14T19:43:56.660Z,37.75
2023-05-14T19:46:23.080Z,38.44
2023-05-14T19:48:49.612Z,38.16
2023-05-14T19:51:15.997Z,37.90
2023-05-14T19:53:42.557Z,38.23
2023-05-14T19:56:09.267Z,38.11
2023-05-14T19:58:35.776Z,38.09
2023-05-14T20:01:02.183Z,38.30
2023-05-14T20:03:29.624Z,38.02
2023-05-14T20:05:56.189Z,38.10
2023-05-14T20:08:22.600Z,38.24
2023-05-14T20:10:49.017Z,38.78
2023-05-14T20:13:15.562Z,38.50
2023-05-14T20:15:42.531Z,38.72
2023-05-14T20:18:09.201Z,38.60
2023-05-14T20:20:35.778Z,38.59
2023-05-14T20:23:03.534Z,38.85
2023-05-14T20:25:30.150Z,38.90
2023-05-14T20:27:56.853Z,38.35
2023-05-14T20:30:23.348Z,38.44
2023-05-14T20:32:50.067Z,38.42
2023-05-14T20:35:16.741Z,38.66
2023-05-14T20:37:43.809Z,38.04
2023-05-14T20:40:12.544Z,38.53
2023-05-14T20:42:39.167Z,39.18
2023-05-14T20:45:06.597Z,38.88
2023-05-14T20:47:34.150Z,39.06
2023-05-14T20:50:00.726Z,39.20
2023-05-14T20:52:27.555Z,39.75
2023-05-14T20:54:54.098Z,39.81
2023-05-14T20:57:20.579Z,40.37
2023-05-14T20:59:47.442Z,40.40
2023-05-14T21:02:14.036Z,40.66
2023-05-14T21:04:40.996Z,41.06
2023-05-14T21:07:07.500Z,41.28
2023-05-14T21:09:34.083Z,40.93
2023-05-14T21:12:00.566Z,40.95
2023-05-14T21:14:27.092Z,40.63
2023-05-14T21:16:53.633Z,40.46
2023-05-14T21:19:20.386Z,40.33
2023-05-14T21:21:47.309Z,41.23
2023-05-14T21:24:13.855Z,40.82
2023-05-14T21:26:41.303Z,40.12
2023-05-14T21:29:07.805Z,40.45
2023-05-14T21:31:34.255Z,40.17
2023-05-14T21:34:00.799Z,40.58
2023-05-14T21:36:27.198Z,40.53
2023-05-14T21:38:53.841Z,40.54
2023-05-14T21:41:21.011Z,40.31
2023-05-14T21:43:48.523Z,41.13
2023-05-14T21:46:15.023Z,41.34
2023-05-14T21:48:41.758Z,41.80
2023-05-14T21:51:08.308Z,41.86
2023-05-14T21:53:34.807Z,41.87
2023-05-14T21:56:01.203Z,41.76
2023-05-14T21:58:27.863Z,41.94
2023-05-14T22:00:54.292Z,42.03
2023-05-14T22:03:20.811Z,41.97
2023-05-14T22:05:49.114Z,42.71
2023-05-14T22:08:17.448Z,42.23
2023-05-14T22:10:44.141Z,42.21
2023-05-14T22:13:10.949Z,42.09
2023-05-14T22:15:37.870Z,42.54
2023-05-14T22:18:04.645Z,42.11
2023-05-14T22:20:31.137Z,42.47
2023-05-14T22:22:57.631Z,42.90
2023-05-14T22:25:24.291Z,42.93
2023-05-14T22:27:50.969Z,42.76
2023-05-14T22:30:17.378Z,43.03
2023-05-14T22:32:43.905Z,43.11
2023-05-14T22:35:11.139Z,42.48
2023-05-14T22:37:37.628Z,42.19
2023-05-14T22:40:05.174Z,42.34
2023-05-14T22:42:31.583Z,42.38
2023-05-14T22:44:57.960Z,42.45
2023-05-14T22:47:25.146Z,43.19
2023-05-14T22:49:52.394Z,43.67
2023-05-14T22:52:18.923Z,43.32
2023-05-14T22:54:46.517Z,43.63
2023-05-14T22:57:12.923Z,43.77
2023-05-14T22:59:39.496Z,43.60
2023-05-14T23:02:06.770Z,44.22
2023-05-14T23:04:33.430Z,43.64
2023-05-14T23:06:59.926Z,43.87
2023-05-14T23:09:26.436Z,44.05
2023-05-14T23:11:52.859Z,44.30
2023-05-14T23:14:19.588Z,43.95
2023-05-14T23:16:46.056Z,44.00
2023-05-14T23:19:12.790Z,43.89
2023-05-14T23:21:39.405Z,43.18
2023-05-14T23:24:06.137Z,43.07
2023-05-14T23:26:32.728Z,43.24
2023-05-14T23:28:59.334Z,43.07
2023-05-14T23:31:25.827Z,43.02
2023-05-14T23:33:52.239Z,43.92
2023-05-14T23:36:18.811Z,43.91
2023-05-14T23:38:45.753Z,44.24
2023-05-14T23:41:12.198Z,44.19
2023-05-14T23:43:38.556Z,44.48
2023-05-14T23:46:05.232Z,44.51
2023-05-14T23:48:31.726Z,44.35
2023-05-14T23:50:58.178Z,44.37
2023-05-14T23:53:24.810Z,44.75
2023-05-14T23:55:51.412Z,44.70
2023-05-14T23:58:17.897Z,44.61
